createdAt,value
2023-12-16T00:00:45.266Z,16.73
2023-12-16T00:03:12.559Z,15.45
2023-12-16T00:05:39.894Z,19.27
2023-12-16T00:08:07.044Z,16.52
2023-12-16T00:10:34.120Z,16.85
2023-12-16T00:13:01.228Z,16.95
2023-12-16T00:15:28.614Z,16.95
2023-12-16T00:17:55.806Z,16.83
2023-12-16T00:20:22.976Z,17.20
2023-12-16T00:22:49.659Z,16.60
2023-12-16T00:25:16.960Z,17.67
2023-12-16T00:27:44.118Z,19.00
2023-12-16T00:30:11.550Z,18.70
2023-12-16T00:32:41.059Z,20.70
2023-12-16T00:35:08.461Z,21.20
2023-12-16T00:37:36.196Z,21.48
2023-12-16T00:40:04.198Z,22.73
2023-12-16T00:42:31.454Z,22.33
2023-12-16T00:44:58.966Z,23.98
2023-12-16T00:47:26.594Z,23.63
2023-12-16T00:49:53.923Z,23.50
2023-12-16T00:52:21.309Z,24.27
2023-12-16T00:54:48.799Z,23.13
2023-12-16T00:57:15.554Z,21.55
2023-12-16T00:59:43.052Z,20.92
2023-12-16T01:02:09.715Z,21.17
2023-12-16T01:04:37.281Z,21.20
2023-12-16T01:07:04.539Z,21.15
2023-12-16T01:09:31.730Z,21.40
2023-12-16T01:11:58.840Z,20.58
2023-12-16T01:14:25.970Z,20.10
2023-12-16T01:16:52.903Z,21.27
2023-12-16T01:19:19.921Z,19.65
2023-12-16T01:21:46.739Z,19.38
2023-12-16T01:24:13.550Z,19.98
2023-12-16T01:26:40.278Z,19.48
2023-12-16T01:29:07.345Z,20.17
2023-12-16T01:31:34.024Z,19.90
2023-12-16T01:34:01.032Z,19.75
2023-12-16T01:36:27.888Z,19.35
2023-12-16T01:38:54.617Z,19.10
2023-12-16T01:41:21.781Z,17.80
2023-12-16T01:43:48.452Z,20.20
2023-12-16T01:46:15.281Z,19.08
2023-12-16T01:48:43.272Z,19.85
2023-12-16T01:51:10.066Z,20.98
2023-12-16T01:53:37.022Z,19.35
2023-12-16T01:56:03.946Z,19.00
2023-12-16T01:58:30.604Z,18.95
2023-12-16T02:00:57.363Z,18.88
2023-12-16T02:03:24.265Z,18.65
2023-12-16T02:05:50.927Z,18.23
2023-12-16T02:08:17.581Z,19.63
2023-12-16T02:10:44.810Z,19.98
2023-12-16T02:13:11.706Z,18.05
2023-12-16T02:15:38.557Z,19.17
2023-12-16T02:18:05.575Z,18.42
2023-12-16T02:20:32.343Z,19.23
2023-12-16T02:22:58.994Z,19.27
2023-12-16T02:25:26.325Z,18.55
2023-12-16T02:27:53.120Z,17.42
2023-12-16T02:30:21.881Z,18.83
2023-12-16T02:32:49.185Z,18.83
2023-12-16T02:35:15.994Z,19.90
2023-12-16T02:37:42.967Z,19.33
2023-12-16T02:40:10.368Z,19.65
2023-12-16T02:42:37.071Z,18.52
2023-12-16T02:45:03.977Z,19.58
2023-12-16T02:47:30.774Z,18.77
2023-12-16T02:49:57.586Z,19.00
2023-12-16T02:52:24.492Z,18.95
2023-12-16T02:54:51.341Z,17.15
2023-12-16T02:57:18.059Z,19.48
2023-12-16T02:59:44.817Z,21.02
2023-12-16T03:02:11.565Z,20.23
2023-12-16T03:04:38.292Z,18.60
2023-12-16T03:07:05.170Z,20.08
2023-12-16T03:09:31.866Z,19.48
2023-12-16T03:12:01.545Z,18.20
2023-12-16T03:14:28.771Z,17.50
2023-12-16T03:16:55.483Z,18.75
2023-12-16T03:19:22.251Z,18.45
2023-12-16T03:21:48.994Z,17.77
2023-12-16T03:24:16.521Z,17.83
2023-12-16T03:26:43.315Z,17.63
2023-12-16T03:29:10.027Z,17.52
2023-12-16T03:31:36.759Z,16.77
2023-12-16T03:34:04.047Z,16.02
2023-12-16T03:36:31.290Z,16.63
2023-12-16T03:38:58.389Z,18.08
2023-12-16T03:41:25.104Z,17.40
2023-12-16T03:43:51.816Z,18.63
2023-12-16T03:46:18.734Z,18.33
2023-12-16T03:48:45.819Z,18.55
2023-12-16T03:51:12.569Z,19.85
2023-12-16T03:53:39.285Z,19.13
2023-12-16T03:56:06.275Z,19.63
2023-12-16T03:58:33.347Z,18.73
2023-12-16T04:01:00.187Z,17.75
2023-12-16T04:03:26.997Z,18.17
2023-12-16T04:05:53.737Z,18.65
2023-12-16T04:08:20.451Z,17.55
2023-12-16T04:10:47.112Z,18.42
2023-12-16T04:13:16.497Z,18.65
2023-12-16T04:15:43.695Z,18.48
2023-12-16T04:18:10.731Z,17.38
2023-12-16T04:20:37.985Z,17.27
2023-12-16T04:23:05.134Z,17.80
2023-12-16T04:25:32.262Z,17.30
2023-12-16T04:27:59.488Z,18.52
2023-12-16T04:30:26.672Z,18.77
2023-12-16T04:32:54.041Z,18.45
2023-12-16T04:35:21.181Z,21.05
2023-12-16T04:37:48.284Z,19.38
2023-12-16T04:40:15.088Z,18.45
2023-12-16T04:42:42.897Z,18.70
2023-12-16T04:45:10.205Z,18.55
2023-12-16T04:47:38.426Z,18.77
2023-12-16T04:50:06.529Z,18.30
2023-12-16T04:52:33.638Z,17.77
2023-12-16T04:55:00.402Z,19.20
2023-12-16T04:57:27.208Z,17.17
2023-12-16T04:59:53.944Z,17.95
2023-12-16T05:02:20.576Z,17.85
2023-12-16T05:04:47.328Z,18.63
2023-12-16T05:07:14.040Z,18.00
2023-12-16T05:09:40.776Z,18.30
2023-12-16T05:12:07.974Z,18.40
2023-12-16T05:14:34.745Z,15.95
2023-12-16T05:17:02.518Z,17.98
2023-12-16T05:19:29.338Z,18.13
2023-12-16T05:21:56.092Z,16.75
2023-12-16T05:24:22.867Z,16.98
2023-12-16T05:26:49.629Z,17.75
2023-12-16T05:29:16.510Z,17.90
2023-12-16T05:31:43.276Z,15.98
2023-12-16T05:34:11.662Z,16.30
2023-12-16T05:36:38.428Z,17.40
2023-12-16T05:39:05.111Z,17.42
2023-12-16T05:41:31.807Z,16.23
2023-12-16T05:43:58.454Z,16.70
2023-12-16T05:46:25.272Z,16.65
2023-12-16T05:48:52.070Z,16.77
2023-12-16T05:51:18.770Z,15.98
2023-12-16T05:53:45.464Z,16.45
2023-12-16T05:56:14.680Z,15.73
2023-12-16T05:58:41.404Z,17.00
2023-12-16T06:01:08.447Z,15.68
2023-12-16T06:03:35.255Z,15.38
2023-12-16T06:06:01.900Z,15.93
2023-12-16T06:08:28.592Z,15.25
2023-12-16T06:10:55.251Z,14.98
2023-12-16T06:13:22.003Z,14.85
2023-12-16T06:15:50.136Z,14.20
2023-12-16T06:18:17.854Z,14.13
2023-12-16T06:20:44.588Z,13.90
2023-12-16T06:23:11.358Z,13.75
2023-12-16T06:25:38.103Z,14.55
2023-12-16T06:28:04.864Z,12.43
2023-12-16T06:30:31.627Z,14.88
2023-12-16T06:32:58.443Z,14.45
2023-12-16T06:35:25.172Z,13.98
2023-12-16T06:37:51.881Z,13.27
2023-12-16T06:40:18.640Z,14.38
2023-12-16T06:42:45.307Z,13.55
2023-12-16T06:45:12.101Z,14.00
2023-12-16T06:47:41.877Z,14.05
2023-12-16T06:50:10.117Z,13.93
2023-12-16T06:52:36.797Z,15.27
2023-12-16T06:55:03.892Z,14.65
2023-12-16T06:57:30.630Z,14.75
2023-12-16T06:59:57.332Z,14.40
2023-12-16T07:02:25.272Z,15.77
2023-12-16T07:04:51.977Z,16.55
2023-12-16T07:07:18.694Z,16.73
2023-12-16T07:09:45.398Z,16.90
2023-12-16T07:12:12.103Z,18.00
2023-12-16T07:14:39.358Z,18.40
2023-12-16T07:17:06.091Z,19.67
2023-12-16T07:19:33.222Z,18.90
2023-12-16T07:22:00.144Z,20.17
2023-12-16T07:24:26.853Z,19.88
2023-12-16T07:26:53.598Z,20.25
2023-12-16T07:29:21.818Z,19.10
2023-12-16T07:31:50.269Z,21.02
2023-12-16T07:34:17.682Z,20.13
2023-12-16T07:36:45.273Z,19.65
2023-12-16T07:39:12.003Z,20.05
2023-12-16T07:41:38.681Z,19.65
2023-12-16T07:44:05.512Z,19.40
2023-12-16T07:46:32.240Z,19.65
2023-12-16T07:48:59.248Z,19.80
2023-12-16T07:51:27.020Z,18.20
2023-12-16T07:53:55.291Z,19.23
2023-12-16T07:56:29.038Z,19.02
2023-12-16T07:58:55.868Z,18.67
2023-12-16T08:01:22.711Z,18.02
2023-12-16T08:03:49.645Z,18.67
2023-12-16T08:06:17.240Z,17.65
2023-12-16T08:08:44.530Z,17.00
2023-12-16T08:11:11.326Z,18.10
2023-12-16T08:13:38.002Z,16.90
2023-12-16T08:16:12.498Z,16.48
2023-12-16T08:18:39.496Z,16.73
2023-12-16T08:21:06.308Z,16.83
2023-12-16T08:23:33.032Z,16.48
2023-12-16T08:25:59.724Z,15.75
2023-12-16T08:28:26.538Z,15.45
2023-12-16T08:30:54.830Z,13.63
2023-12-16T08:33:21.693Z,13.25
2023-12-16T08:35:48.488Z,14.25
2023-12-16T08:38:15.150Z,12.80
2023-12-16T08:40:41.923Z,13.23
2023-12-16T08:43:08.828Z,14.60
2023-12-16T08:45:35.685Z,14.07
2023-12-16T08:48:02.452Z,13.60
2023-12-16T08:50:29.238Z,9.10
2023-12-16T08:52:55.935Z,11.25
2023-12-16T08:55:25.238Z,12.32
2023-12-16T08:57:52.119Z,11.02
2023-12-16T09:00:19.046Z,17.58
2023-12-16T09:02:45.732Z,19.42
2023-12-16T09:05:12.521Z,16.88
2023-12-16T09:07:39.678Z,13.57
2023-12-16T09:10:07.398Z,12.60
2023-12-16T09:12:34.106Z,13.23
2023-12-16T09:15:00.838Z,12.43
2023-12-16T09:17:27.553Z,10.82
2023-12-16T09:19:54.332Z,10.02
2023-12-16T09:22:21.208Z,9.27
2023-12-16T09:24:48.657Z,8.07
2023-12-16T09:27:15.453Z,7.10
2023-12-16T09:29:42.136Z,6.93
2023-12-16T09:32:08.827Z,6.50
2023-12-16T09:34:35.620Z,5.82
2023-12-16T09:37:02.320Z,5.05
2023-12-16T09:39:29.023Z,4.28
2023-12-16T09:41:58.484Z,5.13
2023-12-16T09:44:25.343Z,5.47
2023-12-16T09:46:52.438Z,5.70
2023-12-16T09:49:19.144Z,5.65
2023-12-16T09:51:45.821Z,5.72
2023-12-16T09:54:12.572Z,5.18
2023-12-16T09:56:40.328Z,7.53
2023-12-16T09:59:07.094Z,9.90
2023-12-16T10:01:33.910Z,8.15
2023-12-16T10:04:00.790Z,7.70
2023-12-16T10:06:27.557Z,7.50
2023-12-16T10:08:54.282Z,7.88
2023-12-16T10:11:21.020Z,7.60
2023-12-16T10:14:01.690Z,8.52
2023-12-16T10:16:29.044Z,9.40
2023-12-16T10:18:57.908Z,9.93
2023-12-16T10:21:26.292Z,8.85
2023-12-16T10:23:53.969Z,7.90
2023-12-16T10:26:20.657Z,9.35
2023-12-16T10:28:47.895Z,6.60
2023-12-16T10:31:16.966Z,7.93
2023-12-16T10:33:43.807Z,9.07
2023-12-16T10:36:10.797Z,9.05
2023-12-16T10:38:37.569Z,6.60
2023-12-16T10:41:04.504Z,7.93
2023-12-16T10:43:31.249Z,6.25
2023-12-16T10:45:58.407Z,5.72
2023-12-16T10:48:25.642Z,5.53
2023-12-16T10:50:52.773Z,5.25
2023-12-16T10:53:25.409Z,4.97
2023-12-16T10:55:54.643Z,4.50
2023-12-16T10:58:34.119Z,4.45
2023-12-16T11:01:11.704Z,4.82
2023-12-16T11:03:39.426Z,5.55
2023-12-16T11:06:10.163Z,5.22
2023-12-16T11:08:37.457Z,3.55
2023-12-16T11:11:04.629Z,11.07
2023-12-16T11:13:31.910Z,6.55
2023-12-16T11:16:05.249Z,4.10
2023-12-16T11:18:32.497Z,3.65
2023-12-16T11:21:02.397Z,3.97
2023-12-16T11:23:30.597Z,5.03
2023-12-16T11:25:58.241Z,4.35
2023-12-16T11:28:25.494Z,3.92
2023-12-16T11:30:54.123Z,3.65
2023-12-16T11:33:21.305Z,3.58
2023-12-16T11:35:49.179Z,3.42
2023-12-16T11:38:36.576Z,3.47
2023-12-16T11:41:03.768Z,3.50
2023-12-16T11:43:47.298Z,3.97
2023-12-16T11:46:33.976Z,4.00
2023-12-16T11:49:04.689Z,3.63
2023-12-16T11:51:35.480Z,3.47
2023-12-16T11:54:03.211Z,2.80
2023-12-16T11:56:30.315Z,2.88
2023-12-16T11:58:58.816Z,3.55
2023-12-16T12:01:32.837Z,2.97
2023-12-16T12:04:00.439Z,3.50
2023-12-16T12:06:27.472Z,2.75
2023-12-16T12:08:54.769Z,3.47
2023-12-16T12:11:21.924Z,2.80
2023-12-16T12:13:50.208Z,2.90
2023-12-16T12:16:16.953Z,3.22
2023-12-16T12:18:43.781Z,2.55
2023-12-16T12:21:13.207Z,2.55
2023-12-16T12:23:41.567Z,3.20
2023-12-16T12:26:08.377Z,3.17
2023-12-16T12:28:35.094Z,2.97
2023-12-16T12:31:05.958Z,3.17
2023-12-16T12:33:33.511Z,2.45
2023-12-16T12:36:00.434Z,3.00
2023-12-16T12:38:28.642Z,3.88
2023-12-16T12:41:04.398Z,3.13
2023-12-16T12:43:32.559Z,2.38
2023-12-16T12:46:09.861Z,3.00
2023-12-16T12:48:40.216Z,2.28
2023-12-16T12:51:08.419Z,2.83
2023-12-16T12:53:38.489Z,2.50
2023-12-16T12:56:07.738Z,2.25
2023-12-16T12:58:35.329Z,2.33
2023-12-16T13:01:03.517Z,2.35
2023-12-16T13:03:30.999Z,2.72
2023-12-16T13:06:01.413Z,2.25
2023-12-16T13:08:29.986Z,2.33
2023-12-16T13:10:56.800Z,2.50
2023-12-16T13:13:23.596Z,2.38
2023-12-16T13:15:54.884Z,2.38
2023-12-16T13:18:24.263Z,2.13
2023-12-16T13:20:51.341Z,2.58
2023-12-16T13:23:18.210Z,2.90
2023-12-16T13:25:44.964Z,2.40
2023-12-16T13:28:11.651Z,2.33
2023-12-16T13:30:38.957Z,2.60
2023-12-16T13:33:05.864Z,2.20
2023-12-16T13:35:33.084Z,2.33
2023-12-16T13:37:59.996Z,2.30
2023-12-16T13:40:26.826Z,2.95
2023-12-16T13:42:53.929Z,2.15
2023-12-16T13:45:21.647Z,2.67
2023-12-16T13:47:48.660Z,2.33
2023-12-16T13:50:16.006Z,2.58
2023-12-16T13:52:42.815Z,2.33
2023-12-16T13:55:09.838Z,2.08
2023-12-16T13:57:36.682Z,2.38
2023-12-16T14:00:04.561Z,2.20
2023-12-16T14:02:31.424Z,1.90
2023-12-16T14:05:00.975Z,2.45
2023-12-16T14:07:28.335Z,2.33
2023-12-16T14:09:55.418Z,2.30
2023-12-16T14:12:23.103Z,2.05
2023-12-16T14:14:50.386Z,2.33
2023-12-16T14:17:17.492Z,2.30
2023-12-16T14:19:44.941Z,2.22
2023-12-16T14:22:12.147Z,1.70
2023-12-16T14:24:39.306Z,2.10
2023-12-16T14:27:06.657Z,1.92
2023-12-16T14:29:33.901Z,2.28
2023-12-16T14:32:01.016Z,3.47
2023-12-16T14:34:28.382Z,3.08
2023-12-16T14:36:55.619Z,3.85
2023-12-16T14:39:22.770Z,3.25
2023-12-16T14:41:50.001Z,3.10
2023-12-16T14:44:17.070Z,2.67
2023-12-16T14:46:44.185Z,2.80
2023-12-16T14:49:12.250Z,3.20
2023-12-16T14:51:39.911Z,2.33
2023-12-16T14:54:07.257Z,3.08
2023-12-16T14:56:34.447Z,2.58
2023-12-16T14:59:01.637Z,2.67
2023-12-16T15:01:29.525Z,2.60
2023-12-16T15:03:56.952Z,3.20
2023-12-16T15:06:30.390Z,3.80
2023-12-16T15:08:59.579Z,3.25
2023-12-16T15:11:27.126Z,3.28
2023-12-16T15:13:54.267Z,3.50
2023-12-16T15:16:21.891Z,3.45
2023-12-16T15:18:50.223Z,3.33
2023-12-16T15:21:18.232Z,2.78
2023-12-16T15:23:49.122Z,3.28
2023-12-16T15:26:16.385Z,3.40
2023-12-16T15:28:45.819Z,2.92
2023-12-16T15:31:13.699Z,2.83
2023-12-16T15:33:41.330Z,3.28
2023-12-16T15:36:14.938Z,3.00
2023-12-16T15:38:42.633Z,1.83
2023-12-16T15:41:14.539Z,2.67
2023-12-16T15:43:41.665Z,2.63
2023-12-16T15:46:08.738Z,2.90
2023-12-16T15:48:36.041Z,3.05
2023-12-16T15:51:03.304Z,3.00
2023-12-16T15:53:30.370Z,3.08
2023-12-16T15:55:57.424Z,3.03
2023-12-16T15:58:24.671Z,4.68
2023-12-16T16:00:52.945Z,4.00
2023-12-16T16:03:20.229Z,5.60
2023-12-16T16:05:47.446Z,4.10
2023-12-16T16:08:14.737Z,3.85
2023-12-16T16:10:44.206Z,3.58
2023-12-16T16:13:13.600Z,4.03
2023-12-16T16:15:41.366Z,3.88
2023-12-16T16:18:08.729Z,3.72
2023-12-16T16:20:37.606Z,4.53
2023-12-16T16:23:07.776Z,4.10
2023-12-16T16:25:35.263Z,4.22
2023-12-16T16:28:05.363Z,4.03
2023-12-16T16:30:32.833Z,3.97
2023-12-16T16:33:00.241Z,4.20
2023-12-16T16:35:27.566Z,4.13
2023-12-16T16:37:54.787Z,4.72
2023-12-16T16:40:21.998Z,4.07
2023-12-16T16:42:49.086Z,4.55
2023-12-16T16:45:16.249Z,4.10
2023-12-16T16:47:43.619Z,4.57
2023-12-16T16:50:11.121Z,4.13
2023-12-16T16:52:39.654Z,4.30
2023-12-16T16:55:07.473Z,3.75
2023-12-16T16:57:34.805Z,3.30
2023-12-16T17:00:10.618Z,3.40
2023-12-16T17:02:38.447Z,3.60
2023-12-16T17:05:06.399Z,3.15
2023-12-16T17:07:34.138Z,3.03
2023-12-16T17:10:01.349Z,3.83
2023-12-16T17:12:29.015Z,3.47
2023-12-16T17:14:56.262Z,3.58
2023-12-16T17:17:23.710Z,4.43
2023-12-16T17:19:50.910Z,3.63
2023-12-16T17:22:18.122Z,4.13
2023-12-16T17:24:45.262Z,3.90
2023-12-16T17:27:13.016Z,4.35
2023-12-16T17:29:40.153Z,3.92
2023-12-16T17:32:07.400Z,4.35
2023-12-16T17:34:34.619Z,9.00
2023-12-16T17:37:01.741Z,16.25
2023-12-16T17:39:30.421Z,5.07
2023-12-16T17:41:57.738Z,3.75
2023-12-16T17:44:24.875Z,5.15
2023-12-16T17:46:52.036Z,4.10
2023-12-16T17:49:19.150Z,4.20
2023-12-16T17:51:46.378Z,4.22
2023-12-16T17:54:13.587Z,4.53
2023-12-16T17:56:40.799Z,4.55
2023-12-16T17:59:07.901Z,4.15
2023-12-16T18:01:35.088Z,3.97
2023-12-16T18:04:02.481Z,4.03
2023-12-16T18:06:29.644Z,3.85
2023-12-16T18:08:56.836Z,4.13
2023-12-16T18:11:23.979Z,4.05
2023-12-16T18:13:51.337Z,3.88
2023-12-16T18:16:18.591Z,4.15
2023-12-16T18:18:45.847Z,3.97
2023-12-16T18:21:13.097Z,4.43
2023-12-16T18:23:40.341Z,4.25
2023-12-16T18:26:09.137Z,4.32
2023-12-16T18:28:36.266Z,3.50
2023-12-16T18:31:03.501Z,3.83
2023-12-16T18:33:31.123Z,3.75
2023-12-16T18:35:58.417Z,3.60
2023-12-16T18:38:25.643Z,4.15
2023-12-16T18:40:52.800Z,3.75
2023-12-16T18:43:19.921Z,4.10
2023-12-16T18:45:47.079Z,4.10
2023-12-16T18:48:14.307Z,3.15
2023-12-16T18:50:46.189Z,2.90
2023-12-16T18:53:13.270Z,2.90
2023-12-16T18:55:40.398Z,2.83
2023-12-16T18:58:07.527Z,3.10
2023-12-16T19:00:34.644Z,3.50
2023-12-16T19:03:01.911Z,3.25
2023-12-16T19:05:29.087Z,3.50
2023-12-16T19:07:56.564Z,3.90
2023-12-16T19:10:23.637Z,3.42
2023-12-16T19:12:50.776Z,3.70
2023-12-16T19:15:17.958Z,3.72
2023-12-16T19:20:12.487Z,3.53
2023-12-16T19:22:39.586Z,3.10
2023-12-16T19:25:10.562Z,3.53
2023-12-16T19:27:38.153Z,3.20
2023-12-16T19:30:07.824Z,3.47
2023-12-16T19:32:36.570Z,3.42
2023-12-16T19:35:05.027Z,3.22
2023-12-16T19:37:32.145Z,2.85
2023-12-16T19:39:59.300Z,3.10
2023-12-16T19:42:26.473Z,2.88
2023-12-16T19:44:53.205Z,3.60
2023-12-16T19:47:22.861Z,3.28
2023-12-16T19:49:49.818Z,2.97
2023-12-16T19:52:16.682Z,3.28
2023-12-16T19:54:45.576Z,3.08
2023-12-16T19:57:15.069Z,3.47
2023-12-16T19:59:45.237Z,4.07
2023-12-16T20:02:12.297Z,3.90
2023-12-16T20:04:39.100Z,3.45
2023-12-16T20:07:05.832Z,3.33
2023-12-16T20:09:32.503Z,3.95
2023-12-16T20:11:59.177Z,3.75
2023-12-16T20:14:26.430Z,4.00
2023-12-16T20:16:53.154Z,5.03
2023-12-16T20:19:20.088Z,3.70
2023-12-16T20:21:46.964Z,4.03
2023-12-16T20:24:16.753Z,5.05
2023-12-16T20:26:43.786Z,3.95
2023-12-16T20:29:10.653Z,3.80
2023-12-16T20:31:37.438Z,4.07
2023-12-16T20:34:04.392Z,6.07
2023-12-16T20:36:33.048Z,5.32
2023-12-16T20:39:18.365Z,4.95
2023-12-16T20:41:45.160Z,3.38
2023-12-16T20:44:12.023Z,4.03
2023-12-16T20:46:38.894Z,4.43
2023-12-16T20:49:05.791Z,4.07
2023-12-16T20:51:32.667Z,4.25
2023-12-16T20:53:59.433Z,4.63
2023-12-16T20:56:26.185Z,4.55
2023-12-16T20:58:53.199Z,4.10
2023-12-16T21:01:20.210Z,4.10
2023-12-16T21:03:47.021Z,4.35
2023-12-16T21:06:13.893Z,4.00
2023-12-16T21:08:41.146Z,5.35
2023-12-16T21:11:07.888Z,4.18
2023-12-16T21:13:34.573Z,4.30
2023-12-16T21:16:01.233Z,4.60
2023-12-16T21:18:28.763Z,3.67
2023-12-16T21:20:57.498Z,4.00
2023-12-16T21:23:24.810Z,4.22
2023-12-16T21:25:51.517Z,3.58
2023-12-16T21:28:18.181Z,3.65
2023-12-16T21:30:45.276Z,4.78
2023-12-16T21:33:12.099Z,3.70
2023-12-16T21:35:38.874Z,4.70
2023-12-16T21:38:07.473Z,3.83
2023-12-16T21:40:34.260Z,4.22
2023-12-16T21:43:02.071Z,4.72
2023-12-16T21:45:28.871Z,4.57
2023-12-16T21:47:55.721Z,4.28
2023-12-16T21:50:22.647Z,4.50
2023-12-16T21:52:49.333Z,5.05
2023-12-16T21:55:16.085Z,4.65
2023-12-16T21:57:43.331Z,3.75
2023-12-16T22:00:10.728Z,4.03
2023-12-16T22:02:37.480Z,4.72
2023-12-16T22:05:04.523Z,3.90
2023-12-16T22:07:31.244Z,4.03
2023-12-16T22:09:58.155Z,3.90
2023-12-16T22:12:25.102Z,5.38
2023-12-16T22:14:51.934Z,5.05
2023-12-16T22:17:18.680Z,4.85
2023-12-16T22:19:59.914Z,4.18
2023-12-16T22:22:26.756Z,4.32
2023-12-16T22:24:53.482Z,4.07
2023-12-16T22:27:20.229Z,4.43
2023-12-16T22:29:48.826Z,4.28
2023-12-16T22:32:15.633Z,3.97
2023-12-16T22:34:42.407Z,4.80
2023-12-16T22:37:09.241Z,5.93
2023-12-16T22:39:36.018Z,5.18
2023-12-16T22:42:02.835Z,4.35
2023-12-16T22:44:29.627Z,4.45
2023-12-16T22:46:56.369Z,4.82
2023-12-16T22:49:23.283Z,4.93
2023-12-16T22:51:50.480Z,3.88
2023-12-16T22:54:17.334Z,5.35
2023-12-16T22:56:44.174Z,4.72
2023-12-16T22:59:10.903Z,4.88
2023-12-16T23:01:37.561Z,5.07
2023-12-16T23:04:04.515Z,7.40
2023-12-16T23:06:31.247Z,7.90
2023-12-16T23:08:58.012Z,8.68
2023-12-16T23:11:24.749Z,7.45
2023-12-16T23:13:51.812Z,7.45
2023-12-16T23:16:18.530Z,7.07
2023-12-16T23:18:45.296Z,7.43
2023-12-16T23:21:12.553Z,7.00
2023-12-16T23:23:42.360Z,7.68
2023-12-16T23:26:09.187Z,7.32
2023-12-16T23:28:35.939Z,7.07
2023-12-16T23:31:10.956Z,7.88
2023-12-16T23:33:41.936Z,6.82
2023-12-16T23:36:09.278Z,7.63
2023-12-16T23:38:36.236Z,7.25
2023-12-16T23:41:03.185Z,7.05
2023-12-16T23:43:29.864Z,8.30
2023-12-16T23:45:56.559Z,6.57
2023-12-16T23:48:23.525Z,5.72
2023-12-16T23:50:50.461Z,5.35
2023-12-16T23:53:17.212Z,4.97
2023-12-16T23:55:44.062Z,5.18
2023-12-16T23:58:10.839Z,4.43
